createdAt,value
2019-02-27T00:01:16.736Z,13.70
2019-02-27T00:03:43.235Z,13.50
2019-02-27T00:06:12.895Z,13.50
2019-02-27T00:08:40.763Z,13.40
2019-02-27T00:11:09.951Z,13.40
2019-02-27T00:13:38.658Z,13.40
2019-02-27T00:16:10.848Z,13.30
2019-02-27T00:18:37.511Z,13.40
2019-02-27T00:21:07.967Z,13.40
2019-02-27T00:23:35.428Z,13.40
2019-02-27T00:26:03.488Z,13.40
2019-02-27T00:28:31.534Z,13.30
2019-02-27T00:30:59.503Z,13.30
2019-02-27T00:33:28.716Z,13.30
2019-02-27T00:35:56.897Z,13.30
2019-02-27T00:38:25.203Z,13.30
2019-02-27T00:40:54.027Z,13.30
2019-02-27T00:43:22.370Z,13.30
2019-02-27T00:45:50.391Z,13.20
2019-02-27T00:48:18.258Z,13.20
2019-02-27T00:50:46.546Z,13.20
2019-02-27T00:53:14.622Z,13.20
2019-02-27T00:55:42.489Z,13.10
2019-02-27T00:58:10.539Z,13.10
2019-02-27T01:00:39.463Z,13.00
2019-02-27T01:03:07.911Z,12.90
2019-02-27T01:05:35.815Z,12.90
2019-02-27T01:08:04.591Z,13.00
2019-02-27T01:10:32.467Z,13.00
2019-02-27T01:13:00.411Z,13.00
2019-02-27T01:15:28.290Z,13.00
2019-02-27T01:17:57.556Z,12.90
2019-02-27T01:20:26.047Z,12.90
2019-02-27T01:22:53.938Z,12.90
2019-02-27T01:25:23.063Z,12.90
2019-02-27T01:27:51.522Z,12.90
2019-02-27T01:30:23.899Z,12.90
2019-02-27T01:32:49.649Z,12.90
2019-02-27T01:35:18.871Z,12.80
2019-02-27T01:37:47.006Z,12.80
2019-02-27T01:40:18.049Z,12.80
2019-02-27T01:42:44.966Z,12.80
2019-02-27T01:45:14.732Z,12.80
2019-02-27T01:47:42.578Z,12.80
2019-02-27T01:50:42.031Z,12.80
2019-02-27T01:53:09.958Z,12.70
2019-02-27T01:55:38.206Z,12.60
2019-02-27T01:58:09.183Z,12.50
2019-02-27T02:00:36.446Z,12.60
2019-02-27T02:03:04.632Z,12.50
2019-02-27T02:05:32.706Z,12.50
2019-02-27T02:08:00.688Z,12.40
2019-02-27T02:10:28.971Z,12.40
2019-02-27T02:13:23.694Z,12.40
2019-02-27T02:16:34.149Z,12.40
2019-02-27T02:19:44.598Z,12.40
2019-02-27T02:22:35.747Z,12.40
2019-02-27T02:25:28.017Z,12.30
2019-02-27T02:28:50.250Z,12.40
2019-02-27T02:31:54.884Z,12.30
2019-02-27T02:34:47.660Z,12.30
2019-02-27T02:37:33.776Z,12.30
2019-02-27T02:40:32.096Z,12.30
2019-02-27T02:43:59.637Z,12.30
2019-02-27T02:46:55.573Z,12.20
2019-02-27T02:49:59.071Z,12.20
2019-02-27T02:53:01.556Z,12.10
2019-02-27T02:55:53.097Z,12.10
2019-02-27T02:58:35.190Z,12.00
2019-02-27T03:01:30.250Z,12.00
2019-02-27T03:04:32.941Z,11.90
2019-02-27T03:07:44.883Z,11.90
2019-02-27T03:10:48.000Z,11.90
2019-02-27T03:13:55.347Z,11.80
2019-02-27T03:16:52.199Z,11.80
2019-02-27T03:20:00.558Z,11.80
2019-02-27T03:23:06.263Z,11.80
2019-02-27T03:26:01.263Z,11.80
2019-02-27T03:29:05.271Z,11.70
2019-02-27T03:32:03.759Z,11.60
2019-02-27T03:35:27.623Z,11.50
2019-02-27T03:38:44.999Z,11.50
2019-02-27T03:42:06.350Z,11.50
2019-02-27T03:45:30.643Z,11.50
2019-02-27T03:48:50.619Z,11.40
2019-02-27T03:52:03.291Z,11.40
2019-02-27T03:55:34.229Z,11.30
2019-02-27T03:58:33.596Z,11.30
2019-02-27T04:01:31.396Z,11.20
2019-02-27T04:04:38.293Z,11.20
2019-02-27T04:07:37.540Z,11.20
2019-02-27T04:10:05.894Z,11.20
2019-02-27T04:12:33.870Z,11.20
2019-02-27T04:15:02.148Z,11.20
2019-02-27T04:17:29.039Z,11.10
2019-02-27T04:19:57.324Z,11.10
2019-02-27T04:22:25.508Z,11.10
2019-02-27T04:24:56.498Z,11.10
2019-02-27T04:27:23.146Z,11.00
2019-02-27T04:29:51.088Z,10.90
2019-02-27T04:32:19.029Z,10.90
2019-02-27T04:34:46.954Z,11.00
2019-02-27T04:37:17.679Z,10.90
2019-02-27T04:39:44.842Z,10.90
2019-02-27T04:42:13.191Z,10.90
2019-02-27T04:44:41.025Z,10.90
2019-02-27T04:47:08.948Z,10.90
2019-02-27T04:49:37.817Z,10.90
2019-02-27T04:52:06.459Z,10.80
2019-02-27T04:54:35.068Z,10.80
2019-02-27T04:57:03.014Z,10.90
2019-02-27T04:59:30.855Z,10.90
2019-02-27T05:01:58.774Z,10.90
2019-02-27T05:04:26.694Z,10.80
2019-02-27T05:06:54.559Z,10.80
2019-02-27T05:09:22.462Z,10.70
2019-02-27T05:11:50.578Z,10.70
2019-02-27T05:14:24.759Z,10.70
2019-02-27T05:16:51.390Z,10.70
2019-02-27T05:19:19.558Z,10.70
2019-02-27T05:21:47.460Z,10.60
2019-02-27T05:24:15.358Z,10.50
2019-02-27T05:26:43.459Z,10.50
2019-02-27T05:29:11.370Z,10.60
2019-02-27T05:31:39.393Z,10.60
2019-02-27T05:34:07.266Z,10.60
2019-02-27T05:36:35.174Z,10.70
2019-02-27T05:39:04.022Z,10.70
2019-02-27T05:41:33.258Z,10.70
2019-02-27T05:44:01.591Z,10.50
2019-02-27T05:46:29.439Z,10.60
2019-02-27T05:48:57.387Z,10.60
2019-02-27T05:51:25.283Z,10.60
2019-02-27T05:53:53.278Z,10.50
2019-02-27T05:56:21.149Z,10.50
2019-02-27T05:58:49.482Z,10.50
2019-02-27T06:01:17.417Z,10.50
2019-02-27T06:03:45.361Z,10.50
2019-02-27T06:06:13.211Z,10.50
2019-02-27T06:08:41.457Z,10.50
2019-02-27T06:11:11.570Z,10.50
2019-02-27T06:13:39.515Z,10.40
2019-02-27T06:16:09.182Z,10.50
2019-02-27T06:18:37.278Z,10.50
2019-02-27T06:21:05.220Z,10.50
2019-02-27T06:23:35.397Z,10.50
2019-02-27T06:26:02.932Z,10.50
2019-02-27T06:28:30.926Z,10.50
2019-02-27T06:30:59.199Z,10.40
2019-02-27T06:33:27.233Z,10.40
2019-02-27T06:35:55.251Z,10.40
2019-02-27T06:38:25.350Z,10.50
2019-02-27T06:40:52.949Z,10.40
2019-02-27T06:43:21.060Z,10.40
2019-02-27T06:45:48.974Z,10.40
2019-02-27T06:48:16.861Z,10.40
2019-02-27T06:50:44.862Z,10.30
2019-02-27T06:53:15.631Z,10.30
2019-02-27T06:55:42.593Z,10.30
2019-02-27T06:58:14.336Z,10.30
2019-02-27T07:00:40.319Z,10.30
2019-02-27T07:03:08.324Z,10.30
2019-02-27T07:05:36.343Z,10.30
2019-02-27T07:08:05.203Z,10.30
2019-02-27T07:10:33.305Z,10.30
2019-02-27T07:13:01.223Z,10.30
2019-02-27T07:15:29.177Z,10.30
2019-02-27T07:17:57.121Z,10.30
2019-02-27T07:20:25.364Z,10.30
2019-02-27T07:22:53.282Z,10.30
2019-02-27T07:25:21.718Z,10.20
2019-02-27T07:27:49.632Z,10.30
2019-02-27T07:30:17.803Z,10.20
2019-02-27T07:32:46.002Z,10.30
2019-02-27T07:35:14.385Z,10.30
2019-02-27T07:37:47.174Z,10.30
2019-02-27T07:40:12.970Z,10.30
2019-02-27T07:42:40.912Z,10.30
2019-02-27T07:45:11.329Z,10.30
2019-02-27T07:47:39.306Z,10.40
2019-02-27T07:50:08.855Z,10.40
2019-02-27T07:52:37.230Z,10.50
2019-02-27T07:55:18.429Z,10.60
2019-02-27T07:57:35.134Z,10.70
2019-02-27T08:00:04.016Z,10.80
2019-02-27T08:02:36.086Z,10.80
2019-02-27T08:05:04.206Z,10.90
2019-02-27T08:07:34.009Z,11.00
2019-02-27T08:10:04.643Z,11.00
2019-02-27T08:12:33.799Z,11.00
2019-02-27T08:15:01.694Z,11.10
2019-02-27T08:17:29.723Z,11.20
2019-02-27T08:19:57.643Z,11.20
2019-02-27T08:22:25.612Z,11.30
2019-02-27T08:24:53.600Z,11.30
2019-02-27T08:27:21.574Z,11.40
2019-02-27T08:29:49.536Z,11.40
2019-02-27T08:32:17.451Z,11.50
2019-02-27T08:34:45.379Z,11.60
2019-02-27T08:37:13.214Z,11.60
2019-02-27T08:39:42.750Z,11.70
2019-02-27T08:42:10.651Z,11.70
2019-02-27T08:44:38.618Z,11.80
2019-02-27T08:47:09.790Z,11.90
2019-02-27T08:49:36.354Z,11.90
2019-02-27T08:52:04.602Z,12.00
2019-02-27T08:54:33.144Z,12.00
2019-02-27T08:57:01.363Z,12.10
2019-02-27T08:59:29.295Z,12.10
2019-02-27T09:01:57.156Z,12.20
2019-02-27T09:04:25.107Z,12.30
2019-02-27T09:06:53.043Z,12.30
2019-02-27T09:09:20.983Z,12.40
2019-02-27T09:11:49.023Z,12.50
2019-02-27T09:14:36.331Z,12.50
2019-02-27T09:17:04.670Z,12.70
2019-02-27T09:19:32.876Z,12.80
2019-02-27T09:22:02.390Z,12.90
2019-02-27T09:24:30.494Z,13.00
2019-02-27T09:26:58.655Z,13.10
2019-02-27T09:29:26.619Z,13.20
2019-02-27T09:31:54.580Z,13.30
2019-02-27T09:34:26.615Z,13.40
2019-02-27T09:36:52.235Z,13.50
2019-02-27T09:39:22.076Z,13.60
2019-02-27T09:41:51.226Z,13.70
2019-02-27T09:44:19.336Z,13.90
2019-02-27T09:46:49.836Z,14.00
2019-02-27T09:49:16.999Z,14.10
2019-02-27T09:51:44.936Z,14.20
2019-02-27T09:54:13.317Z,14.40
2019-02-27T09:56:41.782Z,14.40
2019-02-27T09:59:09.735Z,14.50
2019-02-27T10:01:37.904Z,14.70
2019-02-27T10:04:05.997Z,14.80
2019-02-27T10:06:33.899Z,14.90
2019-02-27T10:09:01.886Z,15.10
2019-02-27T10:11:29.849Z,15.20
2019-02-27T10:13:57.860Z,15.30
2019-02-27T10:16:25.802Z,15.40
2019-02-27T10:18:55.659Z,15.60
2019-02-27T10:21:23.690Z,15.80
2019-02-27T10:23:51.618Z,16.10
2019-02-27T10:26:22.074Z,16.20
2019-02-27T10:28:49.204Z,16.30
2019-02-27T10:31:17.195Z,16.50
2019-02-27T10:33:45.187Z,16.70
2019-02-27T10:36:13.153Z,16.90
2019-02-27T10:38:41.239Z,17.10
2019-02-27T10:41:09.166Z,17.30
2019-02-27T10:43:37.143Z,17.50
2019-02-27T10:46:05.162Z,17.70
2019-02-27T10:48:33.186Z,17.90
2019-02-27T10:51:01.205Z,18.20
2019-02-27T10:53:29.118Z,18.40
2019-02-27T10:55:56.974Z,18.60
2019-02-27T10:58:24.935Z,18.80
2019-02-27T11:00:52.840Z,19.00
2019-02-27T11:03:23.684Z,19.20
2019-02-27T11:05:54.091Z,19.20
2019-02-27T11:08:20.714Z,19.30
2019-02-27T11:10:48.600Z,19.50
2019-02-27T11:13:16.621Z,19.70
2019-02-27T11:15:45.571Z,19.90
2019-02-27T11:18:13.892Z,20.10
2019-02-27T11:20:42.031Z,20.20
2019-02-27T11:23:10.004Z,20.40
2019-02-27T11:25:37.972Z,20.50
2019-02-27T11:28:06.075Z,20.70
2019-02-27T11:30:36.798Z,20.80
2019-02-27T11:33:04.643Z,21.00
2019-02-27T11:35:32.722Z,21.10
2019-02-27T11:38:00.611Z,21.30
2019-02-27T11:40:28.626Z,21.40
2019-02-27T11:42:56.913Z,21.40
2019-02-27T11:45:24.974Z,21.60
2019-02-27T11:47:53.026Z,21.80
2019-02-27T11:50:21.375Z,22.00
2019-02-27T11:52:49.886Z,22.10
2019-02-27T11:55:17.805Z,22.10
2019-02-27T11:57:45.826Z,22.20
2019-02-27T12:00:17.923Z,22.30
2019-02-27T12:02:47.502Z,22.40
2019-02-27T12:05:16.141Z,22.60
2019-02-27T12:07:44.129Z,22.80
2019-02-27T12:10:15.077Z,22.80
2019-02-27T12:12:43.633Z,22.90
2019-02-27T12:15:43.646Z,23.10
2019-02-27T12:18:10.483Z,23.10
2019-02-27T12:20:38.523Z,23.40
2019-02-27T12:23:07.521Z,23.40
2019-02-27T12:25:36.391Z,23.60
2019-02-27T12:28:05.702Z,23.80
2019-02-27T12:30:37.194Z,23.80
2019-02-27T12:33:04.274Z,23.90
2019-02-27T12:35:32.179Z,24.00
2019-02-27T12:38:00.155Z,24.10
2019-02-27T12:40:28.315Z,24.20
2019-02-27T12:42:56.391Z,24.40
2019-02-27T12:45:25.745Z,24.60
2019-02-27T12:47:54.514Z,24.70
2019-02-27T12:50:22.983Z,24.70
2019-02-27T12:52:50.968Z,24.80
2019-02-27T12:55:20.423Z,25.00
2019-02-27T12:57:49.601Z,25.00
2019-02-27T13:00:21.559Z,25.00
2019-02-27T13:02:49.644Z,25.00
2019-02-27T13:05:17.654Z,25.30
2019-02-27T13:07:45.614Z,25.40
2019-02-27T13:10:15.931Z,25.50
2019-02-27T13:12:44.039Z,25.60
2019-02-27T13:15:48.415Z,25.80
2019-02-27T13:18:15.126Z,25.80
2019-02-27T13:20:45.727Z,25.80
2019-02-27T13:23:12.913Z,25.80
2019-02-27T13:25:40.818Z,25.80
2019-02-27T13:28:08.750Z,25.80
2019-02-27T13:30:41.381Z,25.90
2019-02-27T13:33:07.012Z,26.00
2019-02-27T13:35:35.507Z,26.20
2019-02-27T13:38:04.098Z,26.20
2019-02-27T13:40:35.152Z,26.20
2019-02-27T13:43:01.862Z,26.20
2019-02-27T13:45:29.970Z,26.30
2019-02-27T13:47:59.096Z,26.40
2019-02-27T13:50:27.368Z,26.50
2019-02-27T13:52:55.295Z,26.40
2019-02-27T13:55:23.822Z,26.60
2019-02-27T13:57:51.865Z,26.70
2019-02-27T14:00:29.225Z,26.70
2019-02-27T14:02:57.345Z,26.80
2019-02-27T14:05:25.502Z,26.90
2019-02-27T14:07:57.113Z,26.90
2019-02-27T14:10:24.887Z,27.00
2019-02-27T14:12:52.915Z,27.00
2019-02-27T14:16:00.745Z,27.00
2019-02-27T14:18:25.404Z,27.00
2019-02-27T14:20:53.481Z,27.10
2019-02-27T14:23:21.418Z,27.10
2019-02-27T14:25:49.464Z,27.20
2019-02-27T14:28:18.325Z,27.30
2019-02-27T14:30:47.094Z,27.20
2019-02-27T14:33:14.943Z,27.20
2019-02-27T14:35:43.310Z,27.10
2019-02-27T14:38:11.264Z,27.10
2019-02-27T14:40:41.271Z,27.10
2019-02-27T14:43:09.016Z,27.30
2019-02-27T14:45:40.092Z,27.40
2019-02-27T14:48:07.136Z,27.40
2019-02-27T14:50:35.172Z,27.30
2019-02-27T14:53:03.235Z,27.40
2019-02-27T14:55:31.285Z,27.40
2019-02-27T14:57:59.322Z,27.20
2019-02-27T15:00:28.795Z,27.10
2019-02-27T15:02:56.898Z,27.10
2019-02-27T15:05:24.834Z,27.10
2019-02-27T15:07:54.614Z,27.00
2019-02-27T15:10:22.809Z,27.00
2019-02-27T15:12:53.935Z,27.20
2019-02-27T15:16:06.976Z,27.20
2019-02-27T15:18:32.951Z,27.20
2019-02-27T15:21:01.002Z,27.10
2019-02-27T15:23:29.011Z,27.00
2019-02-27T15:25:56.918Z,27.00
2019-02-27T15:28:24.815Z,27.00
2019-02-27T15:30:52.767Z,26.90
2019-02-27T15:33:20.703Z,26.90
2019-02-27T15:35:48.698Z,26.90
2019-02-27T15:38:16.831Z,26.90
2019-02-27T15:40:45.274Z,26.80
2019-02-27T15:43:16.987Z,26.70
2019-02-27T15:45:48.102Z,26.60
2019-02-27T15:48:12.817Z,26.60
2019-02-27T15:50:40.746Z,26.50
2019-02-27T15:53:08.743Z,26.40
2019-02-27T15:55:37.913Z,26.40
2019-02-27T15:58:06.051Z,26.30
2019-02-27T16:00:34.278Z,26.20
2019-02-27T16:03:02.315Z,26.10
2019-02-27T16:05:31.607Z,26.00
2019-02-27T16:07:59.828Z,25.90
2019-02-27T16:10:27.930Z,25.80
2019-02-27T16:12:59.580Z,25.70
2019-02-27T16:15:59.965Z,25.70
2019-02-27T16:18:27.166Z,25.60
2019-02-27T16:20:55.599Z,25.40
2019-02-27T16:23:23.503Z,25.30
2019-02-27T16:25:54.144Z,25.20
2019-02-27T16:28:21.250Z,25.10
2019-02-27T16:30:49.267Z,25.00
2019-02-27T16:33:23.159Z,24.80
2019-02-27T16:35:46.944Z,24.60
2019-02-27T16:38:14.822Z,24.50
2019-02-27T16:40:42.987Z,24.40
2019-02-27T16:43:13.564Z,24.00
2019-02-27T16:45:40.588Z,23.80
2019-02-27T16:48:08.589Z,23.70
2019-02-27T16:50:36.488Z,23.50
2019-02-27T16:53:04.401Z,23.30
2019-02-27T16:55:35.896Z,23.10
2019-02-27T16:58:02.191Z,23.00
2019-02-27T17:00:30.268Z,22.80
2019-02-27T17:02:58.350Z,22.70
2019-02-27T17:05:26.355Z,22.60
2019-02-27T17:07:57.371Z,22.40
2019-02-27T17:10:26.099Z,22.30
2019-02-27T17:12:54.610Z,22.20
2019-02-27T17:16:00.343Z,22.30
2019-02-27T17:18:28.488Z,22.20
2019-02-27T17:20:56.939Z,22.10
2019-02-27T17:23:25.143Z,22.00
2019-02-27T17:25:53.033Z,21.70
2019-02-27T17:28:20.963Z,21.60
2019-02-27T17:30:48.938Z,21.50
2019-02-27T17:33:16.844Z,21.40
2019-02-27T17:35:44.803Z,21.40
2019-02-27T17:38:13.811Z,21.40
2019-02-27T17:40:42.620Z,21.30
2019-02-27T17:43:10.546Z,21.30
2019-02-27T17:45:38.431Z,21.20
2019-02-27T17:48:09.255Z,21.20
2019-02-27T17:50:36.232Z,21.20
2019-02-27T17:53:04.609Z,20.90
2019-02-27T17:55:32.426Z,20.80
2019-02-27T17:58:00.504Z,20.70
2019-02-27T18:00:33.207Z,20.70
2019-02-27T18:03:01.186Z,20.70
2019-02-27T18:05:29.029Z,20.70
2019-02-27T18:07:57.106Z,20.70
2019-02-27T18:10:25.154Z,20.60
2019-02-27T18:12:53.206Z,20.50
2019-02-27T18:16:03.538Z,20.60
2019-02-27T18:18:29.628Z,20.60
2019-02-27T18:20:59.450Z,20.50
2019-02-27T18:23:27.905Z,20.40
2019-02-27T18:25:55.795Z,20.40
2019-02-27T18:28:23.732Z,20.30
2019-02-27T18:30:53.044Z,20.30
2019-02-27T18:33:21.575Z,20.20
2019-02-27T18:35:49.699Z,20.20
2019-02-27T18:38:17.730Z,20.20
2019-02-27T18:40:45.620Z,20.10
2019-02-27T18:43:14.136Z,20.00
2019-02-27T18:45:42.292Z,19.90
2019-02-27T18:48:10.794Z,19.90
2019-02-27T18:50:38.714Z,19.90
2019-02-27T18:53:07.529Z,19.90
2019-02-27T18:55:35.446Z,19.80
2019-02-27T18:58:03.466Z,19.80
2019-02-27T19:00:33.414Z,19.70
2019-02-27T19:03:01.242Z,19.60
2019-02-27T19:05:29.295Z,19.60
2019-02-27T19:07:57.479Z,19.50
2019-02-27T19:10:25.743Z,19.50
2019-02-27T19:12:53.874Z,19.40
2019-02-27T19:16:04.400Z,19.30
2019-02-27T19:18:30.735Z,19.20
2019-02-27T19:20:59.245Z,19.20
2019-02-27T19:23:28.443Z,19.00
2019-02-27T19:25:56.371Z,19.00
2019-02-27T19:28:25.534Z,18.90
2019-02-27T19:30:54.006Z,18.80
2019-02-27T19:33:22.128Z,18.60
2019-02-27T19:35:55.957Z,18.50
2019-02-27T19:38:20.376Z,18.30
2019-02-27T19:40:48.574Z,18.40
2019-02-27T19:43:18.167Z,18.30
2019-02-27T19:45:48.842Z,18.30
2019-02-27T19:48:17.170Z,18.30
2019-02-27T19:50:46.528Z,18.30
2019-02-27T19:53:15.097Z,18.30
2019-02-27T19:55:43.747Z,18.20
2019-02-27T19:58:17.118Z,18.20
2019-02-27T20:00:48.487Z,18.00
2019-02-27T20:03:14.054Z,17.90
2019-02-27T20:05:42.831Z,17.80
2019-02-27T20:08:13.414Z,17.80
2019-02-27T20:10:44.096Z,17.70
2019-02-27T20:13:13.049Z,17.70
2019-02-27T20:16:22.628Z,17.70
2019-02-27T20:18:54.826Z,17.60
2019-02-27T20:21:20.270Z,17.70
2019-02-27T20:23:49.034Z,17.70
2019-02-27T20:26:21.014Z,17.60
2019-02-27T20:28:48.275Z,17.50
2019-02-27T20:31:20.170Z,17.50
2019-02-27T20:33:47.523Z,17.40
2019-02-27T20:36:16.171Z,17.40
2019-02-27T20:38:47.435Z,17.30
2019-02-27T20:41:16.574Z,17.30
2019-02-27T20:43:45.239Z,17.20
2019-02-27T20:46:14.666Z,17.10
2019-02-27T20:48:43.988Z,17.10
2019-02-27T20:51:12.475Z,16.90
2019-02-27T20:53:40.829Z,16.90
2019-02-27T20:56:09.259Z,16.80
2019-02-27T20:58:37.987Z,16.80
2019-02-27T21:01:09.925Z,16.80
2019-02-27T21:03:36.843Z,16.80
2019-02-27T21:06:04.919Z,16.80
2019-02-27T21:08:33.353Z,16.90
2019-02-27T21:11:02.903Z,16.80
2019-02-27T21:13:30.830Z,16.80
2019-02-27T21:16:47.947Z,16.80
2019-02-27T21:19:13.657Z,16.80
2019-02-27T21:21:41.507Z,16.80
2019-02-27T21:24:09.595Z,16.70
2019-02-27T21:27:11.502Z,16.60
2019-02-27T21:29:40.182Z,16.70
2019-02-27T21:32:08.525Z,16.60
2019-02-27T21:34:36.619Z,16.60
2019-02-27T21:37:07.225Z,16.60
2019-02-27T21:39:34.995Z,16.40
2019-02-27T21:42:03.144Z,16.40
2019-02-27T21:44:31.113Z,16.40
2019-02-27T21:46:58.966Z,16.30
2019-02-27T21:49:31.600Z,16.20
2019-02-27T21:51:56.627Z,16.10
2019-02-27T21:54:24.581Z,16.00
2019-02-27T21:56:52.574Z,16.00
2019-02-27T21:59:20.444Z,16.00
2019-02-27T22:01:49.049Z,16.00
2019-02-27T22:04:17.149Z,16.00
2019-02-27T22:06:45.099Z,16.00
2019-02-27T22:09:13.554Z,15.90
2019-02-27T22:11:42.700Z,15.90
2019-02-27T22:14:16.597Z,15.70
2019-02-27T22:16:58.269Z,15.60
2019-02-27T22:19:26.243Z,15.60
2019-02-27T22:21:54.119Z,15.50
2019-02-27T22:24:22.308Z,15.40
2019-02-27T22:26:50.214Z,15.40
2019-02-27T22:29:18.202Z,15.30
2019-02-27T22:31:46.200Z,15.30
2019-02-27T22:34:14.583Z,15.40
2019-02-27T22:36:44.047Z,15.30
2019-02-27T22:39:12.247Z,15.30
2019-02-27T22:41:41.526Z,15.40
2019-02-27T22:44:09.603Z,15.30
2019-02-27T22:46:38.750Z,15.20
2019-02-27T22:49:06.638Z,15.20
2019-02-27T22:51:34.579Z,15.20
2019-02-27T22:54:03.134Z,15.10
2019-02-27T22:56:31.240Z,15.10
2019-02-27T22:58:59.398Z,15.00
2019-02-27T23:01:40.133Z,15.00
2019-02-27T23:04:08.620Z,15.10
2019-02-27T23:06:38.003Z,15.00
2019-02-27T23:09:09.948Z,14.90
2019-02-27T23:11:39.617Z,14.90
2019-02-27T23:14:08.280Z,14.90
2019-02-27T23:16:36.216Z,14.80
2019-02-27T23:19:04.367Z,14.90
2019-02-27T23:21:32.510Z,14.90
2019-02-27T23:24:00.521Z,14.70
2019-02-27T23:26:28.433Z,14.70
2019-02-27T23:28:56.500Z,14.70
2019-02-27T23:31:24.358Z,14.60
2019-02-27T23:33:52.263Z,14.60
2019-02-27T23:36:22.038Z,14.50
2019-02-27T23:38:49.960Z,14.50
2019-02-27T23:41:22.772Z,14.60
2019-02-27T23:43:47.616Z,14.60
2019-02-27T23:46:15.658Z,14.60
2019-02-27T23:48:45.594Z,14.60
2019-02-27T23:51:16.678Z,14.50
2019-02-27T23:53:43.567Z,14.50
2019-02-27T23:56:11.690Z,14.50
2019-02-27T23:58:39.584Z,14.50
